createdAt,value
2023-05-22T00:00:22.449Z,42.20
2023-05-22T00:02:24.350Z,42.00
2023-05-22T00:04:29.975Z,42.21
2023-05-22T00:06:34.114Z,41.99
2023-05-22T00:08:35.967Z,41.97
2023-05-22T00:10:38.923Z,41.96
2023-05-22T00:12:43.752Z,42.22
2023-05-22T00:14:45.361Z,42.19
2023-05-22T00:16:49.205Z,42.36
2023-05-22T00:18:50.855Z,42.13
2023-05-22T00:20:53.509Z,41.97
2023-05-22T00:22:56.974Z,42.02
2023-05-22T00:24:58.647Z,42.05
2023-05-22T00:27:00.489Z,41.79
2023-05-22T00:29:02.288Z,42.32
2023-05-22T00:31:04.193Z,42.52
2023-05-22T00:33:06.285Z,42.34
2023-05-22T00:35:08.865Z,42.07
2023-05-22T00:37:10.921Z,42.00
2023-05-22T00:39:12.688Z,42.26
2023-05-22T00:41:14.622Z,42.17
2023-05-22T00:43:17.625Z,42.08
2023-05-22T00:45:19.295Z,42.04
2023-05-22T00:47:23.873Z,42.12
2023-05-22T00:49:25.954Z,42.36
2023-05-22T00:51:27.907Z,42.14
2023-05-22T00:53:31.078Z,42.04
2023-05-22T00:55:33.451Z,42.20
2023-05-22T00:57:36.453Z,42.09
2023-05-22T00:59:38.121Z,41.98
2023-05-22T01:01:42.782Z,42.10
2023-05-22T01:03:45.863Z,42.27
2023-05-22T01:05:48.151Z,41.96
2023-05-22T01:07:49.649Z,42.19
2023-05-22T01:09:52.622Z,42.15
2023-05-22T01:12:10.746Z,42.51
2023-05-22T01:14:40.138Z,42.34
2023-05-22T01:16:59.772Z,42.49
2023-05-22T01:19:26.179Z,42.58
2023-05-22T01:21:46.241Z,42.64
2023-05-22T01:24:16.121Z,42.66
2023-05-22T01:26:45.932Z,42.98
2023-05-22T01:29:15.048Z,42.86
2023-05-22T01:31:19.144Z,42.66
2023-05-22T01:33:26.100Z,42.60
2023-05-22T01:35:28.629Z,42.86
2023-05-22T01:37:31.589Z,43.03
2023-05-22T01:39:36.440Z,43.03
2023-05-22T01:41:40.553Z,42.72
2023-05-22T01:43:42.428Z,42.77
2023-05-22T01:45:43.951Z,42.69
2023-05-22T01:47:45.813Z,43.20
2023-05-22T01:49:48.947Z,42.84
2023-05-22T01:51:57.548Z,42.96
2023-05-22T01:53:58.986Z,43.28
2023-05-22T01:56:07.799Z,43.39
2023-05-22T01:58:15.029Z,43.33
2023-05-22T02:00:21.483Z,43.04
2023-05-22T02:02:27.467Z,43.32
2023-05-22T02:04:34.141Z,43.29
2023-05-22T02:06:37.074Z,43.07
2023-05-22T02:08:41.007Z,43.21
2023-05-22T02:10:56.763Z,43.58
2023-05-22T02:12:58.596Z,43.21
2023-05-22T02:15:01.932Z,43.14
2023-05-22T02:17:05.479Z,43.20
2023-05-22T02:19:08.012Z,43.29
2023-05-22T02:21:10.463Z,43.34
2023-05-22T02:23:12.161Z,43.30
2023-05-22T02:25:15.225Z,43.25
2023-05-22T02:27:17.443Z,43.30
2023-05-22T02:29:19.340Z,43.72
2023-05-22T02:31:21.010Z,43.50
2023-05-22T02:33:22.620Z,43.45
2023-05-22T02:35:25.122Z,43.85
2023-05-22T02:37:27.242Z,43.48
2023-05-22T02:39:30.258Z,43.91
2023-05-22T02:41:31.990Z,43.71
2023-05-22T02:43:35.940Z,43.85
2023-05-22T02:45:40.632Z,44.15
2023-05-22T02:47:42.282Z,44.00
2023-05-22T02:49:45.148Z,43.85
2023-05-22T02:51:48.017Z,44.27
2023-05-22T02:53:51.978Z,44.15
2023-05-22T02:55:53.595Z,44.02
2023-05-22T02:58:00.529Z,44.32
2023-05-22T03:00:06.284Z,44.23
2023-05-22T03:02:08.144Z,44.56
2023-05-22T03:04:10.229Z,44.32
2023-05-22T03:06:12.228Z,44.53
2023-05-22T03:08:15.902Z,44.33
2023-05-22T03:10:17.547Z,44.69
2023-05-22T03:12:19.527Z,44.30
2023-05-22T03:14:21.551Z,44.55
2023-05-22T03:16:23.383Z,44.24
2023-05-22T03:18:27.477Z,44.40
2023-05-22T03:20:33.994Z,44.79
2023-05-22T03:22:36.374Z,44.47
2023-05-22T03:24:38.181Z,44.74
2023-05-22T03:26:39.753Z,44.84
2023-05-22T03:28:44.347Z,44.81
2023-05-22T03:30:46.674Z,44.94
2023-05-22T03:33:11.735Z,44.77
2023-05-22T03:35:19.560Z,44.93
2023-05-22T03:37:21.287Z,44.94
2023-05-22T03:39:23.746Z,44.71
2023-05-22T03:41:33.509Z,45.05
2023-05-22T03:43:35.389Z,45.04
2023-05-22T03:45:37.008Z,44.92
2023-05-22T03:47:39.030Z,45.18
2023-05-22T03:49:40.642Z,44.78
2023-05-22T03:51:42.337Z,45.21
2023-05-22T03:53:48.290Z,44.75
2023-05-22T03:55:50.144Z,45.08
2023-05-22T03:57:51.674Z,44.99
2023-05-22T03:59:53.299Z,44.86
2023-05-22T04:01:58.128Z,45.30
2023-05-22T04:03:59.784Z,45.33
2023-05-22T04:06:01.573Z,45.27
2023-05-22T04:08:03.239Z,45.08
2023-05-22T04:10:05.370Z,45.13
2023-05-22T04:12:08.033Z,45.42
2023-05-22T04:14:10.199Z,45.44
2023-05-22T04:16:12.171Z,45.33
2023-05-22T04:18:14.485Z,45.57
2023-05-22T04:20:16.272Z,45.53
2023-05-22T04:22:20.841Z,45.24
2023-05-22T04:24:23.244Z,45.72
2023-05-22T04:26:26.031Z,45.64
2023-05-22T04:28:27.823Z,45.50
2023-05-22T04:30:37.689Z,45.66
2023-05-22T04:32:40.989Z,45.21
2023-05-22T04:34:42.956Z,45.30
2023-05-22T04:36:48.029Z,45.51
2023-05-22T04:38:50.288Z,45.51
2023-05-22T04:40:53.063Z,45.66
2023-05-22T04:42:54.808Z,45.59
2023-05-22T04:44:58.751Z,45.49
2023-05-22T04:47:06.835Z,45.61
2023-05-22T04:49:09.367Z,45.62
2023-05-22T04:51:11.025Z,45.48
2023-05-22T04:53:12.790Z,45.97
2023-05-22T04:55:17.260Z,45.81
2023-05-22T04:57:19.438Z,45.56
2023-05-22T04:59:23.391Z,45.72
2023-05-22T05:01:27.744Z,45.57
2023-05-22T05:03:29.884Z,45.43
2023-05-22T05:05:36.520Z,45.51
2023-05-22T05:07:43.529Z,45.71
2023-05-22T05:09:45.377Z,46.07
2023-05-22T05:11:47.202Z,45.96
2023-05-22T05:13:48.868Z,45.73
2023-05-22T05:15:50.618Z,46.29
2023-05-22T05:17:52.320Z,46.18
2023-05-22T05:19:54.011Z,46.11
2023-05-22T05:21:55.678Z,46.18
2023-05-22T05:23:57.702Z,45.97
2023-05-22T05:26:01.236Z,46.27
2023-05-22T05:28:03.507Z,45.92
2023-05-22T05:30:05.848Z,45.90
2023-05-22T05:32:19.013Z,46.95
2023-05-22T05:34:41.448Z,47.17
2023-05-22T05:36:57.208Z,46.90
2023-05-22T05:38:59.114Z,46.93
2023-05-22T05:41:01.512Z,47.70
2023-05-22T05:43:06.301Z,47.84
2023-05-22T05:45:11.236Z,47.19
2023-05-22T05:47:17.574Z,47.54
2023-05-22T05:49:20.118Z,47.60
2023-05-22T05:51:23.902Z,47.43
2023-05-22T05:53:25.650Z,47.20
2023-05-22T05:55:34.454Z,46.87
2023-05-22T05:57:39.485Z,46.57
2023-05-22T05:59:43.858Z,46.78
2023-05-22T06:02:04.390Z,46.71
2023-05-22T06:04:09.175Z,46.74
2023-05-22T06:06:14.071Z,46.46
2023-05-22T06:08:52.482Z,46.49
2023-05-22T06:11:01.427Z,46.65
2023-05-22T06:13:09.950Z,46.67
2023-05-22T06:15:13.681Z,46.79
2023-05-22T06:17:16.214Z,46.77
2023-05-22T06:19:22.427Z,46.93
2023-05-22T06:21:24.734Z,46.80
2023-05-22T06:23:26.729Z,46.82
2023-05-22T06:25:30.372Z,46.86
2023-05-22T06:27:33.102Z,46.63
2023-05-22T06:29:35.676Z,46.86
2023-05-22T06:31:39.217Z,46.76
2023-05-22T06:33:43.384Z,46.77
2023-05-22T06:35:53.975Z,46.47
2023-05-22T06:37:57.921Z,46.79
2023-05-22T06:40:01.710Z,46.68
2023-05-22T06:42:13.448Z,46.38
2023-05-22T06:44:33.912Z,46.50
2023-05-22T06:46:39.410Z,46.42
2023-05-22T06:48:41.941Z,46.07
2023-05-22T06:50:48.330Z,46.28
2023-05-22T06:52:50.223Z,46.42
2023-05-22T06:54:54.302Z,46.06
2023-05-22T06:56:57.688Z,46.21
2023-05-22T06:59:01.975Z,46.08
2023-05-22T07:01:23.329Z,45.56
2023-05-22T07:03:36.684Z,45.94
2023-05-22T07:05:57.844Z,45.82
2023-05-22T07:07:59.752Z,45.86
2023-05-22T07:10:01.534Z,45.83
2023-05-22T07:12:03.524Z,45.88
2023-05-22T07:14:08.810Z,45.67
2023-05-22T07:16:12.805Z,45.61
2023-05-22T07:18:15.384Z,45.31
2023-05-22T07:20:18.039Z,45.78
2023-05-22T07:22:28.585Z,45.30
2023-05-22T07:24:31.842Z,45.31
2023-05-22T07:26:36.656Z,45.55
2023-05-22T07:28:42.991Z,45.35
2023-05-22T07:30:48.807Z,45.31
2023-05-22T07:32:50.749Z,45.28
2023-05-22T07:34:53.922Z,45.32
2023-05-22T07:36:55.507Z,45.29
2023-05-22T07:38:57.906Z,45.10
2023-05-22T07:41:04.814Z,44.73
2023-05-22T07:43:12.744Z,44.70
2023-05-22T07:45:15.112Z,44.35
2023-05-22T07:47:17.083Z,44.65
2023-05-22T07:49:20.353Z,44.60
2023-05-22T07:51:22.246Z,44.48
2023-05-22T07:53:26.178Z,44.39
2023-05-22T07:55:31.264Z,44.40
2023-05-22T07:57:36.241Z,44.42
2023-05-22T07:59:46.084Z,44.24
2023-05-22T08:01:47.622Z,43.88
2023-05-22T08:03:49.784Z,44.20
2023-05-22T08:05:51.788Z,44.11
2023-05-22T08:07:53.341Z,43.65
2023-05-22T08:09:54.917Z,43.89
2023-05-22T08:11:56.652Z,44.11
2023-05-22T08:13:58.255Z,43.77
2023-05-22T08:16:01.367Z,43.59
2023-05-22T08:18:03.487Z,43.65
2023-05-22T08:20:06.654Z,43.60
2023-05-22T08:22:08.602Z,43.52
2023-05-22T08:24:10.463Z,43.33
2023-05-22T08:26:12.098Z,43.47
2023-05-22T08:28:13.679Z,43.34
2023-05-22T08:30:15.299Z,43.20
2023-05-22T08:32:17.109Z,43.34
2023-05-22T08:34:18.874Z,43.45
2023-05-22T08:36:23.421Z,42.86
2023-05-22T08:38:24.995Z,43.25
2023-05-22T08:40:37.731Z,43.03
2023-05-22T08:42:42.661Z,42.55
2023-05-22T08:44:44.423Z,42.25
2023-05-22T08:46:47.370Z,42.31
2023-05-22T08:48:49.381Z,42.35
2023-05-22T08:51:02.775Z,42.56
2023-05-22T08:53:08.049Z,41.25
2023-05-22T08:55:10.459Z,41.70
2023-05-22T08:57:12.495Z,41.46
2023-05-22T08:59:14.146Z,42.08
2023-05-22T09:01:16.897Z,41.44
2023-05-22T09:03:21.643Z,41.35
2023-05-22T09:05:26.880Z,41.85
2023-05-22T09:07:29.990Z,41.48
2023-05-22T09:09:36.706Z,41.10
2023-05-22T09:11:38.714Z,41.06
2023-05-22T09:13:41.386Z,41.11
2023-05-22T09:15:43.543Z,40.40
2023-05-22T09:17:45.887Z,40.91
2023-05-22T09:19:47.703Z,40.24
2023-05-22T09:21:49.267Z,40.07
2023-05-22T09:23:51.101Z,40.23
2023-05-22T09:25:56.115Z,38.85
2023-05-22T09:27:57.636Z,40.02
2023-05-22T09:29:59.492Z,39.12
2023-05-22T09:32:01.261Z,40.05
2023-05-22T09:34:04.607Z,39.51
2023-05-22T09:36:09.038Z,39.40
2023-05-22T09:38:12.948Z,39.52
2023-05-22T09:40:14.578Z,38.97
2023-05-22T09:42:17.592Z,39.33
2023-05-22T09:44:19.240Z,38.73
2023-05-22T09:46:20.917Z,38.34
2023-05-22T09:48:22.574Z,38.09
2023-05-22T09:50:24.053Z,37.90
2023-05-22T09:52:33.498Z,37.74
2023-05-22T09:54:37.212Z,37.57
2023-05-22T09:56:40.482Z,37.89
2023-05-22T09:58:43.352Z,37.37
2023-05-22T10:00:46.141Z,37.36
2023-05-22T10:02:52.164Z,37.08
2023-05-22T10:04:54.737Z,36.40
2023-05-22T10:07:04.102Z,36.55
2023-05-22T10:09:09.364Z,36.68
2023-05-22T10:11:14.771Z,36.12
2023-05-22T10:13:17.065Z,35.88
2023-05-22T10:15:19.219Z,36.04
2023-05-22T10:17:22.153Z,35.49
2023-05-22T10:19:27.403Z,35.90
2023-05-22T10:21:30.210Z,35.45
2023-05-22T10:23:32.057Z,35.27
2023-05-22T10:25:37.647Z,34.74
2023-05-22T10:27:40.803Z,35.17
2023-05-22T10:29:55.707Z,34.42
2023-05-22T10:32:19.316Z,34.59
2023-05-22T10:34:32.760Z,34.59
2023-05-22T10:36:36.968Z,35.17
2023-05-22T10:38:57.633Z,34.47
2023-05-22T10:40:59.914Z,35.22
2023-05-22T10:43:03.143Z,34.73
2023-05-22T10:45:07.689Z,34.21
2023-05-22T10:47:11.411Z,34.20
2023-05-22T10:49:21.276Z,33.52
2023-05-22T10:51:23.512Z,33.44
2023-05-22T10:53:31.287Z,32.91
2023-05-22T10:55:32.815Z,33.06
2023-05-22T10:57:36.898Z,32.52
2023-05-22T10:59:41.535Z,31.96
2023-05-22T11:01:43.192Z,32.57
2023-05-22T11:04:00.571Z,33.36
2023-05-22T11:06:02.332Z,33.35
2023-05-22T11:08:11.765Z,32.84
2023-05-22T11:10:13.475Z,33.06
2023-05-22T11:12:25.755Z,33.20
2023-05-22T11:14:27.481Z,32.53
2023-05-22T11:16:38.275Z,32.58
2023-05-22T11:18:40.002Z,32.19
2023-05-22T11:20:42.381Z,31.75
2023-05-22T11:22:50.998Z,32.12
2023-05-22T11:24:58.633Z,31.85
2023-05-22T11:27:06.791Z,31.13
2023-05-22T11:29:08.869Z,31.33
2023-05-22T11:31:10.778Z,31.87
2023-05-22T11:33:13.273Z,31.72
2023-05-22T11:35:19.419Z,32.14
2023-05-22T11:37:21.034Z,31.41
2023-05-22T11:39:23.384Z,31.69
2023-05-22T11:41:25.248Z,31.58
2023-05-22T11:43:33.017Z,32.04
2023-05-22T11:45:37.540Z,31.56
2023-05-22T11:47:43.518Z,31.98
2023-05-22T11:49:45.529Z,31.18
2023-05-22T11:51:50.693Z,31.75
2023-05-22T11:53:53.671Z,31.52
2023-05-22T11:55:55.689Z,31.33
2023-05-22T11:57:57.968Z,30.17
2023-05-22T11:59:59.742Z,30.77
2023-05-22T12:02:01.600Z,30.62
2023-05-22T12:04:05.004Z,30.17
2023-05-22T12:06:08.618Z,30.24
2023-05-22T12:08:10.287Z,30.23
2023-05-22T12:10:14.376Z,30.10
2023-05-22T12:12:16.330Z,29.86
2023-05-22T12:14:19.168Z,30.11
2023-05-22T12:16:25.082Z,30.21
2023-05-22T12:18:27.538Z,29.76
2023-05-22T12:20:31.762Z,29.89
2023-05-22T12:22:33.600Z,29.55
2023-05-22T12:24:53.107Z,29.51
2023-05-22T12:26:56.167Z,29.80
2023-05-22T12:29:01.133Z,29.44
2023-05-22T12:31:02.677Z,29.30
2023-05-22T12:33:04.261Z,28.76
2023-05-22T12:35:06.308Z,29.43
2023-05-22T12:37:18.508Z,29.00
2023-05-22T12:39:20.351Z,28.10
2023-05-22T12:41:21.882Z,28.80
2023-05-22T12:43:25.097Z,29.19
2023-05-22T12:45:26.778Z,29.01
2023-05-22T12:47:29.993Z,28.77
2023-05-22T12:49:31.506Z,28.36
2023-05-22T12:51:33.226Z,28.12
2023-05-22T12:53:34.905Z,27.97
2023-05-22T12:55:39.315Z,28.32
2023-05-22T12:57:40.956Z,27.70
2023-05-22T12:59:43.625Z,28.28
2023-05-22T13:01:45.206Z,28.63
2023-05-22T13:03:46.944Z,27.72
2023-05-22T13:05:48.612Z,27.32
2023-05-22T13:07:50.315Z,27.34
2023-05-22T13:09:51.981Z,26.88
2023-05-22T13:11:53.922Z,26.73
2023-05-22T13:13:55.604Z,27.29
2023-05-22T13:16:00.450Z,27.27
2023-05-22T13:18:02.161Z,26.65
2023-05-22T13:20:04.451Z,26.84
2023-05-22T13:22:07.520Z,27.59
2023-05-22T13:24:09.270Z,27.24
2023-05-22T13:26:16.770Z,27.37
2023-05-22T13:28:18.349Z,27.68
2023-05-22T13:30:20.326Z,27.21
2023-05-22T13:32:22.543Z,27.70
2023-05-22T13:34:24.504Z,27.70
2023-05-22T13:36:26.364Z,27.20
2023-05-22T13:38:28.006Z,26.67
2023-05-22T13:40:29.610Z,26.57
2023-05-22T13:42:39.981Z,26.12
2023-05-22T13:44:41.680Z,26.15
2023-05-22T13:46:43.276Z,26.16
2023-05-22T13:48:44.840Z,26.33
2023-05-22T13:50:49.167Z,26.62
2023-05-22T13:52:50.940Z,26.51
2023-05-22T13:54:52.477Z,26.68
2023-05-22T13:56:54.347Z,27.34
2023-05-22T13:58:56.063Z,27.16
2023-05-22T14:00:57.599Z,26.80
2023-05-22T14:03:01.609Z,26.79
2023-05-22T14:05:03.563Z,26.90
2023-05-22T14:07:05.328Z,27.02
2023-05-22T14:09:08.844Z,26.73
2023-05-22T14:11:10.753Z,26.89
2023-05-22T14:13:12.301Z,26.96
2023-05-22T14:15:16.014Z,26.81
2023-05-22T14:17:17.540Z,27.20
2023-05-22T14:19:20.625Z,27.15
2023-05-22T14:21:22.304Z,26.90
2023-05-22T14:23:23.888Z,27.00
2023-05-22T14:25:26.425Z,26.71
2023-05-22T14:27:29.274Z,26.67
2023-05-22T14:29:31.762Z,26.32
2023-05-22T14:31:44.311Z,26.41
2023-05-22T14:33:46.000Z,27.03
2023-05-22T14:35:48.582Z,27.27
2023-05-22T14:37:50.627Z,26.96
2023-05-22T14:39:52.140Z,26.55
2023-05-22T14:41:58.085Z,26.65
2023-05-22T14:43:59.779Z,26.82
2023-05-22T14:46:05.540Z,26.34
2023-05-22T14:48:17.111Z,26.66
2023-05-22T14:50:20.636Z,26.37
2023-05-22T14:52:22.850Z,26.57
2023-05-22T14:54:27.155Z,26.70
2023-05-22T14:56:28.731Z,26.47
2023-05-22T14:58:30.313Z,26.34
2023-05-22T15:00:32.130Z,26.38
2023-05-22T15:02:33.824Z,26.55
2023-05-22T15:04:35.579Z,26.52
2023-05-22T15:06:37.871Z,26.91
2023-05-22T15:08:39.653Z,26.30
2023-05-22T15:10:41.485Z,27.04
2023-05-22T15:12:43.478Z,26.81
2023-05-22T15:14:44.991Z,26.83
2023-05-22T15:16:46.985Z,26.35
2023-05-22T15:18:48.799Z,26.55
2023-05-22T15:20:50.665Z,27.08
2023-05-22T15:22:52.284Z,26.88
2023-05-22T15:25:05.517Z,26.67
2023-05-22T15:27:07.775Z,26.42
2023-05-22T15:29:10.988Z,26.68
2023-05-22T15:31:13.387Z,26.61
2023-05-22T15:33:15.476Z,26.60
2023-05-22T15:35:17.353Z,26.51
2023-05-22T15:37:19.051Z,26.78
2023-05-22T15:39:20.635Z,26.70
2023-05-22T15:41:22.204Z,26.70
2023-05-22T15:43:25.977Z,27.13
2023-05-22T15:45:27.805Z,26.73
2023-05-22T15:47:29.993Z,26.76
2023-05-22T15:49:31.713Z,27.02
2023-05-22T15:51:33.406Z,26.76
2023-05-22T15:53:35.265Z,27.03
2023-05-22T15:55:36.900Z,27.01
2023-05-22T15:57:44.686Z,27.05
2023-05-22T15:59:50.751Z,26.83
2023-05-22T16:01:52.388Z,27.02
2023-05-22T16:03:53.976Z,27.15
2023-05-22T16:05:57.266Z,27.02
2023-05-22T16:07:58.781Z,27.26
2023-05-22T16:10:01.038Z,26.89
2023-05-22T16:12:03.948Z,26.82
2023-05-22T16:14:05.989Z,27.15
2023-05-22T16:16:08.100Z,27.00
2023-05-22T16:18:13.746Z,27.00
2023-05-22T16:20:15.532Z,27.15
2023-05-22T16:22:17.627Z,27.04
2023-05-22T16:24:19.337Z,26.77
2023-05-22T16:26:21.802Z,26.77
2023-05-22T16:28:23.509Z,26.82
2023-05-22T16:30:25.169Z,26.45
2023-05-22T16:32:26.699Z,26.62
2023-05-22T16:34:29.642Z,26.96
2023-05-22T16:36:31.668Z,27.03
2023-05-22T16:38:33.425Z,27.06
2023-05-22T16:40:34.948Z,27.13
2023-05-22T16:42:38.338Z,26.96
2023-05-22T16:44:39.966Z,26.92
2023-05-22T16:46:41.482Z,27.11
2023-05-22T16:48:43.191Z,27.20
2023-05-22T16:50:48.241Z,26.52
2023-05-22T16:52:49.784Z,27.17
2023-05-22T16:54:51.909Z,27.15
2023-05-22T16:56:53.628Z,26.89
2023-05-22T16:58:55.507Z,27.11
2023-05-22T17:00:57.570Z,27.07
2023-05-22T17:02:59.314Z,27.15
2023-05-22T17:05:01.303Z,27.40
2023-05-22T17:07:04.182Z,27.11
2023-05-22T17:09:09.968Z,27.29
2023-05-22T17:11:11.528Z,27.08
2023-05-22T17:13:20.701Z,27.30
2023-05-22T17:15:22.285Z,27.19
2023-05-22T17:17:24.149Z,27.35
2023-05-22T17:19:26.464Z,27.47
2023-05-22T17:21:28.829Z,27.28
2023-05-22T17:23:30.417Z,27.33
2023-05-22T17:25:41.824Z,27.30
2023-05-22T17:27:43.970Z,27.58
2023-05-22T17:29:45.518Z,27.05
2023-05-22T17:31:47.690Z,27.27
2023-05-22T17:33:49.425Z,27.55
2023-05-22T17:35:51.416Z,27.34
2023-05-22T17:37:52.960Z,27.21
2023-05-22T17:39:54.448Z,27.33
2023-05-22T17:42:07.521Z,27.19
2023-05-22T17:44:11.826Z,27.12
2023-05-22T17:46:13.520Z,27.39
2023-05-22T17:48:23.411Z,27.19
2023-05-22T17:50:25.450Z,27.89
2023-05-22T17:52:27.033Z,27.66
2023-05-22T17:54:35.802Z,27.58
2023-05-22T17:56:38.770Z,27.59
2023-05-22T17:58:40.665Z,27.60
2023-05-22T18:00:43.218Z,27.77
2023-05-22T18:02:44.922Z,27.37
2023-05-22T18:04:48.864Z,27.37
2023-05-22T18:06:50.361Z,27.96
2023-05-22T18:08:51.966Z,27.51
2023-05-22T18:10:55.724Z,27.98
2023-05-22T18:12:57.675Z,27.51
2023-05-22T18:14:59.752Z,28.03
2023-05-22T18:17:01.290Z,28.19
2023-05-22T18:19:03.165Z,27.97
2023-05-22T18:21:04.971Z,28.23
2023-05-22T18:23:06.560Z,28.21
2023-05-22T18:25:09.047Z,28.52
2023-05-22T18:27:10.703Z,28.41
2023-05-22T18:29:15.499Z,28.61
2023-05-22T18:31:20.273Z,28.73
2023-05-22T18:33:24.793Z,29.21
2023-05-22T18:35:26.510Z,29.12
2023-05-22T18:37:28.366Z,29.42
2023-05-22T18:39:32.952Z,29.36
2023-05-22T18:41:36.423Z,29.29
2023-05-22T18:43:42.139Z,29.98
2023-05-22T18:45:43.932Z,29.94
2023-05-22T18:47:45.958Z,29.70
2023-05-22T18:49:47.573Z,30.30
2023-05-22T18:51:49.141Z,30.09
2023-05-22T18:53:51.778Z,30.35
2023-05-22T18:55:54.192Z,30.66
2023-05-22T18:57:56.084Z,31.14
2023-05-22T18:59:57.889Z,31.20
2023-05-22T19:02:00.495Z,30.98
2023-05-22T19:04:02.057Z,31.40
2023-05-22T19:06:04.284Z,31.05
2023-05-22T19:08:06.117Z,31.37
2023-05-22T19:10:11.669Z,31.21
2023-05-22T19:12:13.238Z,31.45
2023-05-22T19:14:14.903Z,31.21
2023-05-22T19:16:19.747Z,31.50
2023-05-22T19:18:21.328Z,31.27
2023-05-22T19:20:23.691Z,31.20
2023-05-22T19:22:25.345Z,31.42
2023-05-22T19:24:28.315Z,31.17
2023-05-22T19:26:29.951Z,31.49
2023-05-22T19:28:34.125Z,31.30
2023-05-22T19:30:35.941Z,31.50
2023-05-22T19:32:37.859Z,31.55
2023-05-22T19:34:39.422Z,31.44
2023-05-22T19:36:43.773Z,31.64
2023-05-22T19:38:45.416Z,31.75
2023-05-22T19:40:47.065Z,31.82
2023-05-22T19:42:48.782Z,31.98
2023-05-22T19:44:50.500Z,31.89
2023-05-22T19:46:52.194Z,31.94
2023-05-22T19:48:56.677Z,31.99
2023-05-22T19:50:58.275Z,31.91
2023-05-22T19:53:03.178Z,32.23
2023-05-22T19:55:05.259Z,32.47
2023-05-22T19:57:16.212Z,32.42
2023-05-22T19:59:17.716Z,32.58
2023-05-22T20:01:19.352Z,32.60
2023-05-22T20:03:24.524Z,32.54
2023-05-22T20:05:29.641Z,32.66
2023-05-22T20:07:31.212Z,32.79
2023-05-22T20:09:32.784Z,32.76
2023-05-22T20:11:34.400Z,32.83
2023-05-22T20:13:39.028Z,32.87
2023-05-22T20:15:41.236Z,32.90
2023-05-22T20:17:47.708Z,33.13
2023-05-22T20:19:49.550Z,32.95
2023-05-22T20:21:58.332Z,33.39
2023-05-22T20:23:59.985Z,33.59
2023-05-22T20:26:01.764Z,33.39
2023-05-22T20:28:04.761Z,33.85
2023-05-22T20:30:11.517Z,33.94
2023-05-22T20:32:13.143Z,33.93
2023-05-22T20:34:14.889Z,34.35
2023-05-22T20:36:16.926Z,34.42
2023-05-22T20:38:18.997Z,34.31
2023-05-22T20:40:20.684Z,34.26
2023-05-22T20:42:22.917Z,34.25
2023-05-22T20:44:24.896Z,34.54
2023-05-22T20:46:26.698Z,34.44
2023-05-22T20:48:28.681Z,34.29
2023-05-22T20:50:30.311Z,34.67
2023-05-22T20:52:31.880Z,34.31
2023-05-22T20:54:36.506Z,34.62
2023-05-22T20:56:38.512Z,34.47
2023-05-22T20:58:44.445Z,34.75
2023-05-22T21:00:49.472Z,34.53
2023-05-22T21:02:54.909Z,35.00
2023-05-22T21:04:58.039Z,35.01
2023-05-22T21:06:59.614Z,34.92
2023-05-22T21:09:01.672Z,35.01
2023-05-22T21:11:03.451Z,34.73
2023-05-22T21:13:05.080Z,35.27
2023-05-22T21:15:07.448Z,34.98
2023-05-22T21:17:08.957Z,35.23
2023-05-22T21:19:10.490Z,35.06
2023-05-22T21:21:14.443Z,35.56
2023-05-22T21:23:16.126Z,35.48
2023-05-22T21:25:17.894Z,35.47
2023-05-22T21:27:19.504Z,35.19
2023-05-22T21:29:21.127Z,35.60
2023-05-22T21:31:23.126Z,35.47
2023-05-22T21:33:25.655Z,35.66
2023-05-22T21:35:27.575Z,35.86
2023-05-22T21:37:29.102Z,35.63
2023-05-22T21:39:30.777Z,36.13
2023-05-22T21:41:32.522Z,36.06
2023-05-22T21:43:36.512Z,36.28
2023-05-22T21:45:38.924Z,36.30
2023-05-22T21:47:40.735Z,35.95
2023-05-22T21:49:42.314Z,36.25
2023-05-22T21:51:44.052Z,36.24
2023-05-22T21:53:46.612Z,36.04
2023-05-22T21:55:50.859Z,36.78
2023-05-22T21:57:52.435Z,36.65
2023-05-22T21:59:54.834Z,36.74
2023-05-22T22:01:56.398Z,36.35
2023-05-22T22:03:58.098Z,36.49
2023-05-22T22:05:59.766Z,36.53
2023-05-22T22:08:01.260Z,36.68
2023-05-22T22:10:03.018Z,37.23
2023-05-22T22:12:05.077Z,37.06
2023-05-22T22:14:07.265Z,37.24
2023-05-22T22:16:08.882Z,37.27
2023-05-22T22:18:14.827Z,37.21
2023-05-22T22:20:17.408Z,37.55
2023-05-22T22:22:22.562Z,37.59
2023-05-22T22:24:24.151Z,37.18
2023-05-22T22:26:27.050Z,37.42
2023-05-22T22:28:31.297Z,37.56
2023-05-22T22:30:32.941Z,37.48
2023-05-22T22:32:35.672Z,37.55
2023-05-22T22:34:37.589Z,37.70
2023-05-22T22:36:40.324Z,37.43
2023-05-22T22:38:41.849Z,37.28
2023-05-22T22:40:52.734Z,37.59
2023-05-22T22:42:54.441Z,37.87
2023-05-22T22:44:56.194Z,38.01
2023-05-22T22:46:57.751Z,38.04
2023-05-22T22:49:01.884Z,37.97
2023-05-22T22:51:07.274Z,37.80
2023-05-22T22:53:09.017Z,38.01
2023-05-22T22:55:11.143Z,38.03
2023-05-22T22:57:12.796Z,38.09
2023-05-22T22:59:14.358Z,37.89
2023-05-22T23:01:15.988Z,38.37
2023-05-22T23:03:17.945Z,37.95
2023-05-22T23:05:25.751Z,38.20
2023-05-22T23:07:28.078Z,38.09
2023-05-22T23:09:29.620Z,38.10
2023-05-22T23:11:37.196Z,38.54
2023-05-22T23:13:41.082Z,38.32
2023-05-22T23:15:43.102Z,38.50
2023-05-22T23:17:45.001Z,38.28
2023-05-22T23:19:46.910Z,38.49
2023-05-22T23:21:52.139Z,38.46
2023-05-22T23:23:54.342Z,38.69
2023-05-22T23:25:58.141Z,38.45
2023-05-22T23:28:00.497Z,38.38
2023-05-22T23:30:04.439Z,38.82
2023-05-22T23:32:06.896Z,38.63
2023-05-22T23:34:08.377Z,38.67
2023-05-22T23:36:09.932Z,38.77
2023-05-22T23:38:14.501Z,38.76
2023-05-22T23:40:18.989Z,38.38
2023-05-22T23:42:20.602Z,38.75
2023-05-22T23:44:22.285Z,38.92
2023-05-22T23:46:24.409Z,38.67
2023-05-22T23:48:29.444Z,38.98
2023-05-22T23:50:33.774Z,38.92
2023-05-22T23:52:35.623Z,38.92
2023-05-22T23:54:37.188Z,39.11
2023-05-22T23:56:39.203Z,39.02
2023-05-22T23:58:40.809Z,39.02
